EA1HJA
43.21.47N 005.52.09W
IN73BI aprs.fi
zuletzt gehoert:
2022-10-03T09:24:53Z
zuerst gehoert:
2020-02-10T15:01:43Z

APRS Oviedo [IN73BI], 2 Stunde(n), EA1HJA [11:26:09, 0s].
33D00 43.21.63N 005.51.13WIN73BI 1.402km 63°ENE09:01:41Z33-D-00 Protección Civil REMER / Delegación del Gobierno en Asturias
EA1YR 43.22.10N 005.51.86WIN73BI 1.554km N09:25:36ZJesus(3EA1YR-1)
Jesus via DMR+ EA1YR(2EA1YR-7)
EA1JBU 43.21.85N 005.51.13WIN73BI 1.620km 49°NE09:00:05ZEA1JBU(3EA1JBU-1)
EA1L 43.20.37N 005.51.13WIN73BI 2.084km 143°SE09:25:06Zea1l@ure.es V=12.8V
Wind 218°/000kn, Böen bis 002kn, Temp 20.00c, Regen 0.0mm, letzte 24h 0.0mm, seit 0h 0.0mm, Baro 1020.9h, Hum: 0%(2EA1L-13)
ED1ZAU 43.23.04N 005.52.75WIN73BJ 3.393km 344°NNW09:00:08ZRD625 438.5000/430.9000 CC1
EA1HWX 43.19.28N 005.50.98WIN73BH 3.982km 159°SSE09:01:37ZDMO - UHF 439.7250/431.0000 CC11(3EA1HWX-2)
MMDVM DMO 222.3400/222.3400 CC1(2EA1HWX-10)
LEHU 43.22.63N 005.49.57WIN73CJ 4.165km 53°NE09:00:03ZHelipuerto del HUCA: LEAS 030800Z 16005KT 130V200 9999 FEW016 SCT084 17/15 Q1023 NOSIG=
EA1ABW 43.24.77N 005.47.77WIN73CJ 8.668km 42°NE09:00:48ZMMDVM MMDVM HS Hat 439.8250/439.8250 CC1(3EA1ABW-1)
MMDVM MMDVM HS Hat 439.8250/439.8250 CC1(2EA1ABW-2)
LEMR 43.25.83N 005.49.60WIN73CK 9.047km 21°NNE09:00:04ZAerodromo de la Morgal (123.500MHz): LEAS 030800Z 16005KT 130V200 9999 FEW016 SCT084 17/15 Q1023 NOSIG=
LEGM 43.26.15N 005.49.84WIN73CK 9.518km 18°NNE09:00:03ZHelipuerto de La Morgal (123.500MHz): LEAS 030800Z 16005KT 130V200 9999 FEW016 SCT084 17/15 Q1023 NOSIG=
EA1IPU 43.26.21N 005.46.62WIN73CK 11.715km 39°NE09:00:58ZMMDVM MMDVM HS Hat 439.8000/439.8000 CC1(3EA1IPU-1)
EA1IMW 43.14.36N 005.46.93WIN73CF 14.569km 152°SSE09:01:48ZGRUPO RADIO GALENA (GRG) 430.4500/430.4500 CC1(3EA1IMW-1)
ED1ZAY 43.29.47N 005.56.54WIN73AL 16.351km 338°NNW09:00:09ZRD625 438.3000/430.7000 CC1
EA1JBL 43.12.28N 005.47.42WIN73CE 17.791km 159°SSE09:01:28ZMMDVM DVMega 435.3000/435.3000 CC1
EB1DGC 43.12.60N 005.45.59WIN73CF 18.292km 152°SSE09:01:04ZMMDVM MMDVM HS Hat 433.4500/433.4500 CC1
EA1HWA 43.12.00N 005.47.40WIN73CE 18.309km 160°SSE09:00:47ZMMDVM MMDVM HS Hat 433.4500/433.4500 CC1
ED1ZAS 43.27.52N 005.40.17WIN73DL 19.737km 54°NE09:00:08ZRD985 438.2250/430.6250 CC1
ED1ZAE 43.27.99N 005.40.54WIN73DL 19.857km 51°NE09:20:18Z2m Voice 145.5875 -0.600 Mhz(3ED1ZAE-C)
WIDE3-3 ESAS3-3 IN73DL WWW.EA1URG.ORG(2ED1ZAE-3)
EA1FLQ 43.22.00N 005.36.35WIN73EI 21.185km 86°E09:01:26ZMMDVM DVMega 430.9750/430.9750 CC1
EA1AHA 43.32.72N 005.54.38WIN73BN 21.442km 352°N09:02:59ZWind 157°/006kn, Böen bis 007kn, Temp 17.78c, Regen 0.0mm, letzte 24h 0.0mm, seit 0h 0.0mm, Baro 1024.0h, Hum: 79%(3EA1AHA-13)
EA1RCG 43.09.45N 005.49.78WIN73CD 22.118km 172°S09:00:39ZGRUPO RADIO GALENA (GRG) 430.4500/430.4500 CC1(3EA1RCG-3)
EA4ACU 43.29.56N 005.38.92WIN73EL 23.405km 49°NE09:01:27ZMMDVM MMDVM HS Hat 432.7000/432.7000 CC1(3EA4ACU-1)
EB1TK 43.32.22N 005.42.32WIN73DM 24.146km 33°NNE09:20:18ZWind 083°/010kn, Böen bis 016kn, Temp 18.89c, Regen 0.0mm, letzte 24h 0.0mm, seit 0h 0.0mm, Baro 1025.4h, Hum: 86%(3EB1TK-13)
EA1FFA 43.31.53N 005.40.64WIN73DM 24.436km 39°NE09:01:19ZMMDVM MMDVM HS Hat 438.8000/438.8000 CC1(3EA1FFA-1)
EA1FPN 43.32.39N 005.42.17WIN73DM 24.504km 33°NNE09:01:01ZMMDVM MMDVM HS Hat 439.8750/439.8750 CC1
EA1JBE 43.31.93N 005.40.52WIN73DM 25.093km 38°NE08:48:32ZDario(3EA1JBE-7)
Darío, HamTETRA APRS ea1jbe@ureoviedo.es(2EA1JBE-9)
EA1IEJ 43.31.83N 005.40.22WIN73DM 25.200km 39°NE09:01:44ZMMDVM MMDVM HS Hat 438.8500/438.8500 CC6(3EA1IEJ-1)
MMDVM DMO 222.3400/222.3400 CC1(2EA1IEJ-11)
LEEL 43.32.98N 005.41.71WIN73DN 25.750km 33°NNE09:00:04ZHelipuerto de El Musel: LEAS 030800Z 16005KT 130V200 9999 FEW016 SCT084 17/15 Q1023 NOSIG=
EB1GEM 43.30.00N 005.36.07WIN73EM 26.911km 53°NE09:16:26ZWX3in1Plus2.0 U=13.3V,T=??.?C/??.?F(3EB1GEM-3)
ED1ZAD 43.07.90N 005.38.52WIN73ED 30.776km 144°SE09:11:53ZED1ZAD-3 APRS Digi/Igate(3ED1ZAD-3)
EA1HJA 43.28.10N 005.30.45WIN73FL 31.706km 66°ENE09:23:55ZEA1HJA@URE.ES
IN73FL WX3IN1+ 2.0 - V=13.2V,TX TEMP=30.6C(2EA1HJA-2)
EA1JW 43.31.35N 005.28.83WIN73GM 36.392km 59°ENE09:00:24ZMMDVM MMDVM HS Hat 436.5000/436.5000 CC1(3EA1JW-3)
EA1FHR 43.28.72N 005.26.41WIN73GL 37.153km 68°ENE09:00:50ZMMDVM MMDVM HS Hat 439.1500/439.1500 CC1
EA1JAY 43.29.33N 005.26.78WIN73GL 37.147km 66°ENE09:15:02Z434.525MHz Nodo TETRA DMO(3EA1JAY-4)
EA1JAY(2EA1JAY-2)
EA1HWD 43.28.96N 005.26.30WIN73GL 37.468km 68°ENE09:01:21ZMMDVM MMDVM HS Hat 434.2500/434.2500 CC1
EC1KV 43.34.01N 006.16.01WIN63UN 39.929km 306°NW09:16:17Z VOLT.=13.7 V - TEMP.=??.? C(3EC1KV-1)
EA1DZR 43.12.88N 005.24.00WIN73HF 40.912km 112°ESE09:10:50ZMMDVM DVMega 431.1000/431.1000 CC1(3EA1DZR-1)
MMDVM MMDVM HS Hat 432.2000/432.2000 CC2(2EA1DZR-2)
MMDVM DV ADER 434.3500/434.3500 CC1(2EA1DZR-4)
440 MMDVM Voice 433.10000MHz +0.0000MHz, APRS for DMRGateway(2EA1DZR-D)
LETN 43.20.05N 006.22.69WIN63TI 41.360km 267°W09:00:04ZAerodromo de La Curiscada (Tineo): LEAS 030800Z 16005KT 130V200 9999 FEW016 SCT084 17/15 Q1023 NOSIG=

aprs.pl 5.0.011w DL3EL © 2006-2021 [5794899]